Time;durP1;ratioP1;P1;durP2;ratioP2;P2;SDS_P1;SDS_P2;PMS_P1;PMS_P2;Temp;Humidity;BMP_temperature;BMP_pressure;BME280_temperature;BME280_humidity;BME280_pressure;Samples;Min_cycle;Max_cycle;Signal;HPM_P1;HPM_P2
2022/04/10 00:01:22;;;;;;;8.23;3.80;;;5.10;97.70;;;;;;5075076;28;20488;-68
2022/04/10 00:03:49;;;;;;;13.70;3.50;;;5.10;98.20;;;;;;5075131;28;20936;-68
2022/04/10 00:06:16;;;;;;;9.20;3.63;;;5.10;98.00;;;;;;5075174;28;20507;-67
2022/04/10 00:08:43;;;;;;;4.30;2.83;;;5.10;98.00;;;;;;5074717;28;20855;-68
2022/04/10 00:11:11;;;;;;;4.63;2.97;;;5.00;98.00;;;;;;5074948;28;20472;-68
2022/04/10 00:13:38;;;;;;;7.37;3.53;;;5.10;98.50;;;;;;5074937;28;20451;-68
2022/04/10 00:16:08;;;;;;;4.40;3.40;;;5.00;98.20;;;;;;5074882;28;20447;-68
2022/04/10 00:18:36;;;;;;;8.10;4.20;;;5.00;98.20;;;;;;5074677;28;20464;-68
2022/04/10 00:21:04;;;;;;;5.70;3.20;;;4.90;98.30;;;;;;5074629;28;20488;-68
2022/04/10 00:23:31;;;;;;;7.50;3.80;;;4.90;98.50;;;;;;5074836;28;20460;-67
2022/04/10 00:25:58;;;;;;;6.83;3.43;;;4.90;98.60;;;;;;5074464;28;20449;-67
2022/04/10 00:28:25;;;;;;;5.97;3.87;;;4.90;98.60;;;;;;5074728;28;20440;-67
2022/04/10 00:30:52;;;;;;;8.40;3.83;;;4.90;98.70;;;;;;5074260;28;20469;-68
2022/04/10 00:33:20;;;;;;;5.77;4.13;;;4.90;98.60;;;;;;5074299;28;20989;-67
2022/04/10 00:35:46;;;;;;;7.67;4.20;;;4.90;98.60;;;;;;5075154;28;20444;-68
2022/04/10 00:38:13;;;;;;;8.00;3.60;;;4.90;98.50;;;;;;5074552;28;20449;-68
2022/04/10 00:40:40;;;;;;;5.70;3.47;;;4.90;98.50;;;;;;5073804;28;20448;-68
2022/04/10 00:43:06;;;;;;;4.83;3.23;;;4.90;98.50;;;;;;5074402;28;20452;-68
2022/04/10 00:45:33;;;;;;;7.23;3.53;;;4.90;98.50;;;;;;5074383;28;20449;-69
2022/04/10 00:48:00;;;;;;;4.73;4.10;;;4.80;98.60;;;;;;5074604;28;20448;-68
2022/04/10 00:50:28;;;;;;;3.70;2.70;;;4.80;98.90;;;;;;5074132;28;20456;-68
2022/04/10 00:52:57;;;;;;;3.77;3.10;;;4.80;99.00;;;;;;5073977;28;20963;-67
2022/04/10 00:55:24;;;;;;;3.90;3.50;;;4.70;99.10;;;;;;5074128;28;20531;-67
2022/04/10 00:57:51;;;;;;;8.60;3.67;;;4.70;99.20;;;;;;5074092;28;20448;-68
2022/04/10 01:00:18;;;;;;;8.00;4.37;;;4.70;99.30;;;;;;5073954;28;20465;-68
2022/04/10 01:02:45;;;;;;;4.60;4.20;;;4.70;99.50;;;;;;5073579;28;21030;-67
2022/04/10 01:05:12;;;;;;;4.43;4.03;;;4.60;99.40;;;;;;5073986;28;20448;-68
2022/04/10 01:07:41;;;;;;;5.40;4.17;;;4.60;99.50;;;;;;5073581;28;20801;-68
2022/04/10 01:10:08;;;;;;;6.70;4.00;;;4.60;99.60;;;;;;5073907;28;20445;-68
2022/04/10 01:12:35;;;;;;;4.90;3.53;;;4.60;99.60;;;;;;5073771;28;20465;-68
2022/04/10 01:15:02;;;;;;;5.73;4.03;;;4.60;99.50;;;;;;5073842;28;20460;-68
2022/04/10 01:17:30;;;;;;;5.30;4.00;;;4.60;99.60;;;;;;5073433;28;20449;-68
2022/04/10 01:19:58;;;;;;;8.10;4.07;;;4.60;99.50;;;;;;5073443;28;20877;-68
2022/04/10 01:22:33;;;;;;;6.10;3.13;;;4.70;99.40;;;;;;5073496;28;20855;-68
2022/04/10 01:25:03;;;;;;;3.77;3.33;;;4.80;99.30;;;;;;5073714;28;20464;-68
2022/04/10 01:27:29;;;;;;;6.80;4.37;;;4.80;99.10;;;;;;5073640;28;20448;-68
2022/04/10 01:29:56;;;;;;;7.33;3.30;;;4.80;99.00;;;;;;5073482;28;20452;-68
2022/04/10 01:32:23;;;;;;;6.50;4.03;;;4.90;98.80;;;;;;5073287;28;20983;-68
2022/04/10 01:34:50;;;;;;;5.50;3.83;;;4.90;98.50;;;;;;5074169;28;20506;-68
2022/04/10 01:37:19;;;;;;;8.23;4.23;;;4.90;98.30;;;;;;5073538;28;20448;-68
2022/04/10 01:39:47;;;;;;;6.97;4.00;;;4.90;98.20;;;;;;5073307;28;20939;-68
2022/04/10 01:42:14;;;;;;;9.03;4.43;;;4.90;98.20;;;;;;5073284;28;20484;-68
2022/04/10 01:44:42;;;;;;;10.47;4.30;;;4.90;98.10;;;;;;5073461;28;20518;-68
2022/04/10 01:47:09;;;;;;;4.43;3.37;;;4.90;98.10;;;;;;5073371;28;20471;-68
2022/04/10 01:49:36;;;;;;;10.20;4.77;;;4.90;98.10;;;;;;5073135;28;20947;-68
2022/04/10 01:52:03;;;;;;;7.17;3.27;;;4.90;98.20;;;;;;5072310;28;20468;-68
2022/04/10 01:54:31;;;;;;;8.97;4.70;;;5.00;98.60;;;;;;5073336;28;20459;-68
2022/04/10 01:56:59;;;;;;;5.70;3.90;;;5.00;98.50;;;;;;5073289;28;20448;-68
2022/04/10 01:59:27;;;;;;;4.37;4.00;;;5.20;98.60;;;;;;5073602;28;20444;-67
2022/04/10 02:01:54;;;;;;;9.43;4.00;;;5.30;98.60;;;;;;5073289;28;20480;-68
2022/04/10 02:04:21;;;;;;;5.43;4.10;;;5.30;98.30;;;;;;5073270;28;20448;-68
2022/04/10 02:06:48;;;;;;;5.90;3.60;;;5.30;97.80;;;;;;5073131;28;20440;-68
2022/04/10 02:09:14;;;;;;;6.17;3.67;;;5.30;97.50;;;;;;5072930;28;20983;-68
2022/04/10 02:11:41;;;;;;;5.63;4.17;;;5.20;97.40;;;;;;5073435;28;20460;-68
2022/04/10 02:14:09;;;;;;;6.17;3.83;;;5.20;97.50;;;;;;5073310;28;20445;-68
2022/04/10 02:16:36;;;;;;;7.53;4.43;;;5.20;97.50;;;;;;5073315;28;20821;-68
2022/04/10 02:19:03;;;;;;;5.53;4.70;;;5.20;97.50;;;;;;5072938;28;20476;-68
2022/04/10 02:21:31;;;;;;;5.23;4.07;;;5.10;97.90;;;;;;5073122;28;20499;-68
2022/04/10 02:23:57;;;;;;;5.63;3.80;;;5.10;97.60;;;;;;5072728;28;20449;-68
2022/04/10 02:26:24;;;;;;;11.00;4.83;;;5.10;97.80;;;;;;5072775;28;21072;-68
2022/04/10 02:28:51;;;;;;;9.43;5.13;;;5.00;98.00;;;;;;5073034;28;20449;-68
2022/04/10 02:31:19;;;;;;;6.03;4.50;;;5.00;98.30;;;;;;5073045;28;20807;-68
2022/04/10 02:33:46;;;;;;;8.27;4.73;;;5.00;98.30;;;;;;5073030;28;20440;-68
2022/04/10 02:36:16;;;;;;;9.80;5.70;;;5.10;98.50;;;;;;5072761;28;20974;-67
2022/04/10 02:38:43;;;;;;;11.83;5.10;;;5.10;98.50;;;;;;5073072;28;20528;-67
2022/04/10 02:41:10;;;;;;;8.13;4.80;;;5.10;98.50;;;;;;5072739;28;20472;-68
2022/04/10 02:43:38;;;;;;;6.60;4.73;;;5.10;98.50;;;;;;5072665;28;20431;-68
2022/04/10 02:46:04;;;;;;;5.70;4.30;;;5.00;98.60;;;;;;5072611;28;20952;-68
2022/04/10 02:48:33;;;;;;;5.40;4.40;;;5.00;98.80;;;;;;5073026;28;20445;-68
2022/04/10 02:51:01;;;;;;;7.53;4.10;;;5.00;98.80;;;;;;5072678;28;20469;-68
2022/04/10 02:53:28;;;;;;;7.77;4.20;;;5.00;98.90;;;;;;5072730;28;20449;-68
2022/04/10 02:55:54;;;;;;;8.10;4.30;;;5.00;99.00;;;;;;5072727;28;20452;-68
2022/04/10 02:58:21;;;;;;;7.27;4.20;;;5.00;99.30;;;;;;5072576;28;20981;-68
2022/04/10 03:00:48;;;;;;;6.83;4.60;;;4.90;99.20;;;;;;5072620;28;20475;-68
2022/04/10 03:03:15;;;;;;;6.17;4.60;;;4.90;99.40;;;;;;5074633;28;20570;-67
2022/04/10 03:05:43;;;;;;;7.77;4.60;;;5.00;99.40;;;;;;5076282;28;20451;-67
2022/04/10 03:08:10;;;;;;;7.70;4.27;;;5.00;99.40;;;;;;5076309;28;20450;-68
2022/04/10 03:10:37;;;;;;;8.63;5.20;;;5.00;99.30;;;;;;5076073;28;20444;-68
2022/04/10 03:13:03;;;;;;;7.33;4.80;;;5.10;99.40;;;;;;5075826;28;20947;-68
2022/04/10 03:15:30;;;;;;;6.60;4.00;;;5.00;99.40;;;;;;5076101;28;20456;-68
2022/04/10 03:17:57;;;;;;;5.10;4.60;;;5.00;99.50;;;;;;5076142;28;20432;-68
2022/04/10 03:20:23;;;;;;;5.80;4.77;;;5.00;99.70;;;;;;5075741;28;20464;-68
2022/04/10 03:22:52;;;;;;;5.63;4.10;;;5.00;99.80;;;;;;5075801;28;20484;-68
2022/04/10 03:25:18;;;;;;;11.87;5.10;;;5.00;99.90;;;;;;5075815;28;20544;-68
2022/04/10 03:27:45;;;;;;;9.03;5.13;;;5.00;99.90;;;;;;5075862;28;20452;-68
2022/04/10 03:30:12;;;;;;;11.37;5.27;;;5.00;99.90;;;;;;5075719;28;20451;-68
2022/04/10 03:32:40;;;;;;;8.47;4.60;;;5.10;99.90;;;;;;5075670;28;20499;-68
2022/04/10 03:35:08;;;;;;;6.17;4.57;;;5.10;99.90;;;;;;5075673;28;20456;-68
2022/04/10 03:37:35;;;;;;;7.70;4.70;;;5.20;99.90;;;;;;5075656;28;20456;-67
2022/04/10 03:40:05;;;;;;;5.30;4.53;;;5.20;99.90;;;;;;5075576;28;20532;-68
2022/04/10 03:42:38;;;;;;;8.67;4.80;;;5.20;99.90;;;;;;5075664;28;20488;-68
2022/04/10 03:45:06;;;;;;;6.10;4.90;;;5.20;99.70;;;;;;5075899;28;20437;-68
2022/04/10 03:47:33;;;;;;;11.73;4.83;;;5.10;99.60;;;;;;5075504;28;20448;-68
2022/04/10 03:49:59;;;;;;;7.53;5.67;;;5.10;99.80;;;;;;5075556;28;20471;-68
2022/04/10 03:52:26;;;;;;;6.10;5.20;;;5.10;99.70;;;;;;5075353;28;20490;-68
2022/04/10 03:54:53;;;;;;;8.03;5.23;;;5.10;99.80;;;;;;5075458;28;20451;-68
2022/04/10 03:57:21;;;;;;;8.23;5.93;;;5.20;99.80;;;;;;5075265;28;20475;-68
2022/04/10 03:59:48;;;;;;;8.27;5.47;;;5.10;99.90;;;;;;5075340;28;20816;-68
2022/04/10 04:02:16;;;;;;;11.43;5.50;;;5.10;99.80;;;;;;5075273;28;20484;-68
2022/04/10 04:04:43;;;;;;;8.50;5.50;;;5.10;99.80;;;;;;5075221;28;20445;-68
2022/04/10 04:07:09;;;;;;;7.40;5.10;;;5.10;99.80;;;;;;5075112;28;20448;-68
2022/04/10 04:09:36;;;;;;;9.43;6.30;;;5.10;99.90;;;;;;5075056;28;20449;-68
2022/04/10 04:12:03;;;;;;;7.47;5.90;;;5.00;99.90;;;;;;5075112;28;20464;-67
2022/04/10 04:14:31;;;;;;;11.27;6.50;;;5.00;99.90;;;;;;5073803;28;20812;-68
2022/04/10 04:16:59;;;;;;;7.83;6.07;;;4.90;99.90;;;;;;5075138;28;20494;-68
2022/04/10 04:19:26;;;;;;;9.73;6.10;;;4.90;99.90;;;;;;5074739;28;20475;-68
2022/04/10 04:21:53;;;;;;;10.40;6.00;;;4.90;99.90;;;;;;5074669;28;20468;-68
2022/04/10 04:24:20;;;;;;;12.87;6.90;;;5.00;99.90;;;;;;5075111;28;20449;-68
2022/04/10 04:26:47;;;;;;;14.37;6.70;;;5.00;99.90;;;;;;5074488;28;20449;-68
2022/04/10 04:29:14;;;;;;;7.90;5.80;;;5.00;99.90;;;;;;5074575;28;20444;-68
2022/04/10 04:31:42;;;;;;;8.17;6.40;;;5.00;99.90;;;;;;5074345;28;20468;-68
2022/04/10 04:34:11;;;;;;;9.43;6.60;;;5.10;99.90;;;;;;5074662;28;20452;-68
2022/04/10 04:36:38;;;;;;;9.40;6.50;;;5.20;99.90;;;;;;5074649;28;20464;-67
2022/04/10 04:39:04;;;;;;;11.57;6.17;;;5.20;99.90;;;;;;5074582;28;20451;-67
2022/04/10 04:41:31;;;;;;;8.63;6.07;;;5.20;99.90;;;;;;5074370;28;20465;-66
2022/04/10 04:43:58;;;;;;;11.60;6.50;;;5.30;99.90;;;;;;5074352;28;20485;-68
2022/04/10 04:46:25;;;;;;;10.27;6.90;;;5.30;99.90;;;;;;5074647;28;20445;-68
2022/04/10 04:48:54;;;;;;;8.50;6.80;;;5.30;99.80;;;;;;5074350;28;20445;-68
2022/04/10 04:51:20;;;;;;;14.77;6.50;;;5.30;99.80;;;;;;5074052;28;20475;-68
2022/04/10 04:53:47;;;;;;;9.20;5.80;;;5.30;99.80;;;;;;5074241;28;20787;-68
2022/04/10 04:56:15;;;;;;;8.87;6.50;;;5.40;99.80;;;;;;5074222;28;20440;-68
2022/04/10 04:58:42;;;;;;;8.23;5.93;;;5.40;99.60;;;;;;5073803;28;20461;-68
2022/04/10 05:01:09;;;;;;;10.00;6.13;;;5.40;99.60;;;;;;5074192;28;20473;-68
2022/04/10 05:03:36;;;;;;;10.60;5.90;;;5.50;99.80;;;;;;5074008;28;20484;-67
2022/04/10 05:06:04;;;;;;;6.93;6.00;;;5.50;99.60;;;;;;5073919;28;20456;-68
2022/04/10 05:08:31;;;;;;;8.93;5.37;;;5.50;99.60;;;;;;5073642;28;20955;-68
2022/04/10 05:10:59;;;;;;;8.20;6.33;;;5.50;99.50;;;;;;5073831;28;20472;-67
2022/04/10 05:13:26;;;;;;;11.37;6.77;;;5.60;99.60;;;;;;5074075;28;20444;-68
2022/04/10 05:15:53;;;;;;;7.67;5.90;;;5.60;99.50;;;;;;5074528;28;20445;-68
2022/04/10 05:18:20;;;;;;;9.50;6.40;;;5.60;99.50;;;;;;5073665;28;20471;-68
2022/04/10 05:20:47;;;;;;;7.03;6.10;;;5.70;99.30;;;;;;5073827;28;20468;-68
2022/04/10 05:23:17;;;;;;;7.03;5.77;;;5.70;99.30;;;;;;5073730;28;20488;-68
2022/04/10 05:25:44;;;;;;;9.37;5.70;;;5.70;99.30;;;;;;5073440;28;20838;-68
2022/04/10 05:28:11;;;;;;;9.00;6.63;;;5.70;99.20;;;;;;5073654;28;20452;-68
2022/04/10 05:30:38;;;;;;;8.20;5.53;;;5.70;99.20;;;;;;5073656;28;20444;-68
2022/04/10 05:33:05;;;;;;;8.00;6.50;;;5.80;99.30;;;;;;5073567;28;20460;-68
2022/04/10 05:35:32;;;;;;;13.37;6.53;;;5.80;99.20;;;;;;5073444;28;20449;-68
2022/04/10 05:37:58;;;;;;;9.30;5.70;;;5.80;99.30;;;;;;5073610;28;20460;-68
2022/04/10 05:40:26;;;;;;;7.50;5.93;;;5.90;99.30;;;;;;5073601;28;20445;-68
2022/04/10 05:42:53;;;;;;;9.53;6.20;;;5.90;99.20;;;;;;5073432;28;20486;-68
2022/04/10 05:45:20;;;;;;;10.10;6.57;;;5.90;99.20;;;;;;5073433;28;20453;-68
2022/04/10 05:47:47;;;;;;;7.43;5.40;;;5.90;99.10;;;;;;5073083;28;20448;-68
2022/04/10 05:50:15;;;;;;;7.10;6.10;;;5.90;99.20;;;;;;5073148;28;20452;-68
2022/04/10 05:52:43;;;;;;;8.17;5.80;;;5.90;99.20;;;;;;5073049;28;20994;-68
2022/04/10 05:55:12;;;;;;;8.23;5.70;;;5.90;99.10;;;;;;5073380;28;20543;-68
2022/04/10 05:57:40;;;;;;;7.13;5.73;;;5.90;99.10;;;;;;5073610;28;20457;-68
2022/04/10 06:00:10;;;;;;;6.77;6.10;;;5.90;99.40;;;;;;5073416;28;20437;-68
2022/04/10 06:02:37;;;;;;;6.43;5.80;;;5.90;99.30;;;;;;5073223;28;20488;-68
2022/04/10 06:05:04;;;;;;;8.50;6.07;;;5.90;99.50;;;;;;5073272;28;20456;-68
2022/04/10 06:07:31;;;;;;;7.83;6.70;;;5.90;99.40;;;;;;5073366;28;20821;-68
2022/04/10 06:09:58;;;;;;;8.87;6.83;;;5.90;99.80;;;;;;5073093;28;20452;-68
2022/04/10 06:12:25;;;;;;;10.00;5.77;;;6.00;99.90;;;;;;5072897;28;20468;-68
2022/04/10 06:14:53;;;;;;;8.73;6.13;;;6.00;99.90;;;;;;5073784;28;20460;-68
2022/04/10 06:17:20;;;;;;;7.27;5.80;;;5.90;99.90;;;;;;5073236;28;20453;-68
2022/04/10 06:19:47;;;;;;;7.53;6.20;;;6.00;99.90;;;;;;5072984;28;20840;-68
2022/04/10 06:22:14;;;;;;;7.37;5.83;;;6.00;99.90;;;;;;5073239;28;20461;-68
2022/04/10 06:24:41;;;;;;;15.03;7.17;;;6.00;99.90;;;;;;5073144;28;20480;-68
2022/04/10 06:27:08;;;;;;;9.27;7.13;;;6.10;99.90;;;;;;5073396;28;20441;-68
2022/04/10 06:29:34;;;;;;;12.80;7.30;;;6.10;99.90;;;;;;5073380;28;20460;-67
2022/04/10 06:32:03;;;;;;;9.77;7.60;;;6.10;99.90;;;;;;5073352;28;20461;-68
2022/04/10 06:34:30;;;;;;;9.90;7.57;;;6.20;99.90;;;;;;5073176;28;20485;-68
2022/04/10 06:36:58;;;;;;;11.80;7.67;;;6.20;99.90;;;;;;5073094;28;20447;-68
2022/04/10 06:39:25;;;;;;;9.00;7.83;;;6.20;99.90;;;;;;5076840;28;20445;-68
2022/04/10 06:41:51;;;;;;;8.60;7.20;;;6.30;99.90;;;;;;5076793;28;20497;-68
2022/04/10 06:44:18;;;;;;;10.20;7.70;;;6.30;99.90;;;;;;5076675;28;20484;-67
2022/04/10 06:46:45;;;;;;;12.57;8.50;;;6.40;99.90;;;;;;5076810;28;20853;-68
2022/04/10 06:49:13;;;;;;;10.17;8.10;;;6.40;99.90;;;;;;5076356;28;20935;-68
2022/04/10 06:51:40;;;;;;;10.63;8.57;;;6.50;99.90;;;;;;5076479;28;20551;-67
2022/04/10 06:54:08;;;;;;;11.70;8.30;;;6.60;99.90;;;;;;5076615;28;20441;-67
2022/04/10 06:56:35;;;;;;;12.33;9.00;;;6.70;99.90;;;;;;5076734;28;20502;-67
2022/04/10 06:59:02;;;;;;;9.43;8.43;;;6.70;99.90;;;;;;5076510;28;20935;-68
2022/04/10 07:01:29;;;;;;;10.13;8.63;;;6.80;99.90;;;;;;5076739;28;20468;-67
2022/04/10 07:03:58;;;;;;;10.83;8.73;;;6.90;99.90;;;;;;5076187;28;20464;-67
2022/04/10 07:06:26;;;;;;;14.17;8.20;;;6.90;99.90;;;;;;5076173;28;20444;-67
2022/04/10 07:08:52;;;;;;;11.07;8.57;;;7.00;99.90;;;;;;5076551;28;20445;-67
2022/04/10 07:11:19;;;;;;;10.83;8.53;;;7.10;99.90;;;;;;5076234;28;20483;-68
2022/04/10 07:13:46;;;;;;;14.77;9.20;;;7.10;99.90;;;;;;5076318;28;20440;-67
2022/04/10 07:16:12;;;;;;;10.37;9.03;;;7.20;99.90;;;;;;5076192;28;20460;-68
2022/04/10 07:18:39;;;;;;;14.47;9.17;;;7.30;99.90;;;;;;5075712;28;20464;-68
2022/04/10 07:21:06;;;;;;;10.30;8.53;;;7.50;99.90;;;;;;5076072;28;20475;-68
2022/04/10 07:23:42;;;;;;;11.73;8.40;;;7.60;99.90;;;;;;5076004;28;20483;-68
2022/04/10 07:26:10;;;;;;;14.57;8.67;;;7.70;99.90;;;;;;5076103;28;20519;-68
2022/04/10 07:28:37;;;;;;;12.13;8.97;;;7.80;99.70;;;;;;5075965;28;20452;-68
2022/04/10 07:31:05;;;;;;;12.03;8.37;;;8.00;99.90;;;;;;5075931;28;20464;-68
2022/04/10 07:33:32;;;;;;;10.43;8.00;;;8.10;99.10;;;;;;5075797;28;20441;-68
2022/04/10 07:35:58;;;;;;;15.20;9.17;;;8.20;98.50;;;;;;5076217;28;20445;-67
2022/04/10 07:38:25;;;;;;;12.17;8.77;;;8.30;98.60;;;;;;5075580;28;20967;-67
2022/04/10 07:40:53;;;;;;;11.10;8.63;;;8.50;98.20;;;;;;5075447;28;20469;-68
2022/04/10 07:43:20;;;;;;;10.03;8.07;;;8.50;97.10;;;;;;5075545;28;20488;-68
2022/04/10 07:48:31;;;;;;;9.60;8.27;;;8.60;96.40;;;;;;5075381;28;20412;-68
2022/04/10 07:50:58;;;;;;;12.07;7.37;;;8.70;96.50;;;;;;5075489;28;20710;-68
2022/04/10 07:53:25;;;;;;;8.63;6.83;;;8.60;96.40;;;;;;5075529;28;20443;-67
2022/04/10 07:55:53;;;;;;;10.00;8.30;;;8.70;96.20;;;;;;5075230;28;20453;-66
2022/04/10 07:58:20;;;;;;;12.33;7.00;;;8.80;95.90;;;;;;5075318;28;20453;-67
2022/04/10 08:00:47;;;;;;;7.10;6.40;;;8.90;95.60;;;;;;5075300;28;20480;-67
2022/04/10 08:03:14;;;;;;;11.43;7.00;;;9.00;95.40;;;;;;5075416;28;20484;-67
2022/04/10 08:05:41;;;;;;;8.20;6.50;;;9.10;95.10;;;;;;5075312;28;20456;-67
2022/04/10 08:08:09;;;;;;;8.17;6.00;;;9.20;94.20;;;;;;5075499;28;20452;-67
2022/04/10 08:10:37;;;;;;;9.07;6.10;;;9.20;94.10;;;;;;5075194;28;20448;-67
2022/04/10 08:13:05;;;;;;;7.43;6.67;;;9.20;94.30;;;;;;5075038;28;20444;-67
2022/04/10 08:15:32;;;;;;;11.40;7.00;;;9.30;94.50;;;;;;5074840;28;20827;-67
2022/04/10 08:17:59;;;;;;;6.80;6.07;;;9.40;94.60;;;;;;5074904;28;20951;-68
2022/04/10 08:20:26;;;;;;;8.40;7.60;;;9.40;93.60;;;;;;5074669;28;20457;-69
2022/04/10 08:22:58;;;;;;;9.03;4.80;;;9.50;93.30;;;;;;5075098;28;20951;-68
2022/04/10 08:25:25;;;;;;;7.13;5.23;;;9.50;92.10;;;;;;5075219;28;20426;-68
2022/04/10 08:27:52;;;;;;;5.67;4.70;;;9.60;91.10;;;;;;5074880;28;20445;-69
2022/04/10 08:30:21;;;;;;;7.80;5.00;;;9.60;90.70;;;;;;5074857;28;20429;-69
2022/04/10 08:32:48;;;;;;;10.30;4.63;;;9.70;90.60;;;;;;5074432;28;21001;-69
2022/04/10 08:35:15;;;;;;;7.50;4.13;;;9.80;90.90;;;;;;5075311;28;20440;-69
2022/04/10 08:37:42;;;;;;;4.97;3.13;;;9.90;90.20;;;;;;5074803;28;20854;-68
2022/04/10 08:40:10;;;;;;;4.90;3.43;;;9.90;88.80;;;;;;5074829;28;20787;-69
2022/04/10 08:42:37;;;;;;;5.70;3.70;;;10.00;85.80;;;;;;5074511;28;20468;-69
2022/04/10 08:45:06;;;;;;;4.43;4.00;;;10.10;88.40;;;;;;5074492;28;20483;-69
2022/04/10 08:47:35;;;;;;;6.33;2.90;;;10.40;87.30;;;;;;5074606;28;20448;-69
2022/04/10 08:50:02;;;;;;;8.43;3.20;;;10.40;81.60;;;;;;5074526;28;20448;-68
2022/04/10 08:52:31;;;;;;;6.60;3.70;;;10.40;81.90;;;;;;5074383;28;20476;-69
2022/04/10 08:54:58;;;;;;;6.30;2.80;;;10.60;83.50;;;;;;5074462;28;20513;-68
2022/04/10 08:57:24;;;;;;;4.90;3.03;;;10.80;80.80;;;;;;5074358;28;20467;-68
2022/04/10 08:59:51;;;;;;;4.40;3.73;;;11.00;78.00;;;;;;5074231;28;20449;-68
2022/04/10 09:02:18;;;;;;;4.30;3.40;;;11.30;79.00;;;;;;5074004;28;20479;-69
2022/04/10 09:04:46;;;;;;;7.50;3.07;;;11.50;76.70;;;;;;5074012;28;20488;-68
2022/04/10 09:07:13;;;;;;;5.77;3.30;;;11.50;74.50;;;;;;5073935;28;20455;-69
2022/04/10 09:09:43;;;;;;;3.97;2.50;;;11.20;73.90;;;;;;5073694;28;20457;-69
2022/04/10 09:12:10;;;;;;;6.67;3.10;;;11.30;74.50;;;;;;5073848;28;20469;-69
2022/04/10 09:14:39;;;;;;;6.33;2.57;;;11.30;75.50;;;;;;5073592;28;20956;-68
2022/04/10 09:17:14;;;;;;;6.60;3.40;;;11.60;73.90;;;;;;5073945;28;20502;-69
2022/04/10 09:19:44;;;;;;;5.00;2.60;;;11.90;72.40;;;;;;5073430;28;20471;-69
2022/04/10 09:22:25;;;;;;;5.73;2.83;;;12.00;69.30;;;;;;5073760;28;20496;-70
2022/04/10 09:25:07;;;;;;;4.77;2.60;;;12.10;68.00;;;;;;5073683;28;20474;-68
2022/04/10 09:27:34;;;;;;;5.43;2.33;;;12.20;70.10;;;;;;5073676;28;20497;-68
2022/04/10 09:30:02;;;;;;;3.77;2.07;;;12.20;66.20;;;;;;5073679;28;20498;-69
2022/04/10 09:32:43;;;;;;;4.70;2.57;;;12.10;65.70;;;;;;5073618;28;20464;-69
2022/04/10 09:35:11;;;;;;;2.50;2.17;;;12.00;63.70;;;;;;5073685;28;20436;-69
2022/04/10 09:37:48;;;;;;;6.30;2.60;;;12.00;63.80;;;;;;5073755;28;20448;-68
2022/04/10 09:40:36;;;;;;;6.40;3.07;;;12.00;63.80;;;;;;5073531;28;20931;-68
2022/04/10 09:43:05;;;;;;;4.23;2.00;;;12.00;63.90;;;;;;5068933;28;20490;-69
2022/04/10 09:45:38;;;;;;;4.47;3.80;;;12.00;65.30;;;;;;5073451;28;20579;-71
2022/04/10 09:48:19;;;;;;;4.23;3.13;;;12.10;64.20;;;;;;5073894;28;20428;-68
2022/04/10 09:50:47;;;;;;;6.13;2.50;;;12.10;65.10;;;;;;5073599;28;20477;-69
2022/04/10 09:53:15;;;;;;;2.77;2.03;;;12.00;62.70;;;;;;5073780;28;20445;-69
2022/04/10 09:55:43;;;;;;;2.00;1.80;;;11.90;64.60;;;;;;5073493;28;20433;-69
2022/04/10 09:58:11;;;;;;;4.13;1.33;;;12.00;60.50;;;;;;5073057;28;20452;-68
2022/04/10 10:00:40;;;;;;;2.60;1.73;;;12.10;59.20;;;;;;5073441;28;20454;-68
2022/04/10 10:03:09;;;;;;;2.70;1.70;;;12.20;58.00;;;;;;5074045;28;20449;-69
2022/04/10 10:05:37;;;;;;;6.80;1.77;;;12.30;58.40;;;;;;5074124;28;20491;-68
2022/04/10 10:08:04;;;;;;;3.30;2.03;;;12.30;58.40;;;;;;5073537;28;20452;-69
2022/04/10 10:10:34;;;;;;;5.47;2.50;;;12.20;58.60;;;;;;5073109;28;20920;-69
2022/04/10 10:13:03;;;;;;;5.20;2.17;;;12.20;59.90;;;;;;5075611;28;20444;-69
2022/04/10 10:15:30;;;;;;;3.47;1.93;;;12.30;59.60;;;;;;5077383;28;20456;-69
2022/04/10 10:17:58;;;;;;;2.30;2.10;;;12.40;60.10;;;;;;5077707;28;20453;-69
2022/04/10 10:20:25;;;;;;;2.23;1.27;;;12.60;60.00;;;;;;5077322;28;20460;-69
2022/04/10 10:22:52;;;;;;;3.07;1.57;;;12.80;55.50;;;;;;5077525;28;20448;-68
2022/04/10 10:25:27;;;;;;;9.30;8.60;;;13.10;57.20;;;;;;5077301;28;20591;-69
2022/04/10 10:28:31;;;;;;;3.87;3.30;;;13.30;53.80;;;;;;5077383;28;20447;-69
2022/04/10 10:31:15;;;;;;;2.60;2.03;;;13.40;55.20;;;;;;5074433;28;20510;-69
2022/04/10 10:33:49;;;;;;;6.23;1.80;;;13.20;53.00;;;;;;5076806;28;20822;-68
2022/04/10 10:36:23;;;;;;;2.40;1.30;;;13.10;54.10;;;;;;5076663;28;20915;-69
2022/04/10 10:38:52;;;;;;;3.27;1.90;;;12.90;53.90;;;;;;5076620;28;21036;-69
2022/04/10 10:41:33;;;;;;;3.73;2.13;;;12.70;53.60;;;;;;5076863;28;20483;-68
2022/04/10 10:44:17;;;;;;;5.87;2.20;;;12.40;54.50;;;;;;5076928;28;20480;-69
2022/04/10 10:46:57;;;;;;;3.17;2.13;;;12.20;56.00;;;;;;5076705;28;20472;-69
2022/04/10 10:49:23;;;;;;;3.50;1.90;;;12.10;57.70;;;;;;5077047;28;20494;-69
2022/04/10 10:51:51;;;;;;;4.73;1.80;;;12.10;58.20;;;;;;5076570;28;20472;-69
2022/04/10 10:54:21;;;;;;;6.90;2.33;;;12.20;59.50;;;;;;5076636;28;20440;-69
2022/04/10 10:56:50;;;;;;;5.00;1.90;;;12.40;59.20;;;;;;5076518;28;20510;-69
2022/04/10 10:59:24;;;;;;;5.77;2.20;;;12.70;61.60;;;;;;5076458;28;20839;-69
2022/04/10 11:01:56;;;;;;;4.43;2.20;;;13.30;58.30;;;;;;5076425;28;20464;-69
2022/04/10 11:04:28;;;;;;;4.23;2.10;;;13.70;58.10;;;;;;5077108;28;20508;-69
2022/04/10 11:06:55;;;;;;;4.00;2.10;;;14.40;59.00;;;;;;5076475;28;20465;-70
2022/04/10 11:09:24;;;;;;;4.73;2.03;;;15.30;55.40;;;;;;5076331;28;20456;-69
2022/04/10 11:11:51;;;;;;;6.03;2.40;;;16.00;54.70;;;;;;5076201;28;20557;-69
2022/04/10 11:14:39;;;;;;;5.87;2.23;;;16.50;50.90;;;;;;5076262;28;20425;-69
2022/04/10 11:17:10;;;;;;;7.93;2.17;;;17.00;49.60;;;;;;5076777;28;20429;-69
2022/04/10 11:19:37;;;;;;;4.20;2.10;;;17.70;46.80;;;;;;5075778;28;20492;-69
2022/04/10 11:22:07;;;;;;;4.30;2.03;;;18.50;44.70;;;;;;5076671;28;20472;-68
2022/04/10 11:24:35;;;;;;;7.20;2.40;;;18.50;42.00;;;;;;5075476;28;20840;-69
2022/04/10 11:27:05;;;;;;;4.40;1.90;;;19.10;42.10;;;;;;5076137;28;20460;-69
2022/04/10 11:29:33;;;;;;;6.43;2.03;;;19.80;39.60;;;;;;5075984;28;20448;-70
2022/04/10 11:32:05;;;;;;;7.00;1.97;;;20.30;38.00;;;;;;5076065;28;20468;-70
2022/04/10 11:34:32;;;;;;;4.60;1.93;;;20.60;36.20;;;;;;5075944;28;20460;-70
2022/04/10 11:37:03;;;;;;;4.53;1.90;;;21.20;35.40;;;;;;5075868;28;20827;-70
2022/04/10 11:39:33;;;;;;;2.73;1.70;;;21.90;32.90;;;;;;5076003;28;20445;-68
2022/04/10 11:42:02;;;;;;;5.37;1.73;;;22.40;31.90;;;;;;5075699;28;20491;-67
2022/04/10 11:44:29;;;;;;;2.97;1.70;;;23.00;31.60;;;;;;5075574;28;20483;-67
2022/04/10 11:46:58;;;;;;;4.23;1.90;;;22.90;30.60;;;;;;5075830;28;20498;-67
2022/04/10 11:49:27;;;;;;;2.13;1.70;;;23.00;31.30;;;;;;5075942;28;20951;-67
2022/04/10 11:51:55;;;;;;;3.00;1.93;;;23.20;31.00;;;;;;5075897;28;21006;-68
2022/04/10 11:54:27;;;;;;;3.17;1.97;;;23.40;29.10;;;;;;5075548;28;20845;-67
2022/04/10 11:56:54;;;;;;;5.10;2.07;;;24.30;29.40;;;;;;5075578;28;20463;-69
2022/04/10 11:59:21;;;;;;;3.03;1.70;;;24.60;27.80;;;;;;5075738;28;20460;-69
2022/04/10 12:01:50;;;;;;;2.80;1.67;;;24.40;27.60;;;;;;5075626;28;20475;-69
2022/04/10 12:04:18;;;;;;;2.50;1.50;;;24.50;28.10;;;;;;5075299;28;20449;-70
2022/04/10 12:06:47;;;;;;;4.93;2.40;;;25.10;27.10;;;;;;5075720;28;20463;-69
2022/04/10 12:09:15;;;;;;;4.27;2.60;;;25.40;27.30;;;;;;5075202;28;20445;-69
2022/04/10 12:11:43;;;;;;;3.20;1.70;;;24.80;26.00;;;;;;5075578;28;20496;-69
2022/04/10 12:14:22;;;;;;;3.00;1.80;;;24.50;25.90;;;;;;5075210;28;20444;-69
2022/04/10 12:16:51;;;;;;;3.93;2.00;;;23.90;25.20;;;;;;5075226;28;20455;-69
2022/04/10 12:19:30;;;;;;;5.13;2.10;;;23.70;27.00;;;;;;5074812;28;20936;-69
2022/04/10 12:21:58;;;;;;;5.03;2.77;;;23.00;27.60;;;;;;5075286;28;20479;-69
2022/04/10 12:24:25;;;;;;;5.63;2.77;;;22.00;28.70;;;;;;5074988;28;20444;-69
2022/04/10 12:26:52;;;;;;;2.60;2.13;;;21.20;30.00;;;;;;5075037;28;20456;-69
2022/04/10 12:29:19;;;;;;;4.20;2.00;;;20.50;30.30;;;;;;5075049;28;20460;-70
2022/04/10 12:31:49;;;;;;;5.13;2.77;;;19.70;31.70;;;;;;5074614;28;20465;-69
2022/04/10 12:34:16;;;;;;;4.10;2.60;;;19.80;32.70;;;;;;5074459;28;20983;-69
2022/04/10 12:36:47;;;;;;;3.13;2.07;;;21.00;32.80;;;;;;5074082;28;20444;-69
2022/04/10 12:39:33;;;;;;;1.93;1.33;;;22.20;29.00;;;;;;5074557;28;20459;-69
2022/04/10 12:42:07;;;;;;;3.20;1.63;;;23.10;27.10;;;;;;5074257;28;20473;-69
2022/04/10 12:44:36;;;;;;;2.63;1.80;;;23.70;25.90;;;;;;5074624;28;20456;-69
2022/04/10 12:47:03;;;;;;;1.70;1.20;;;24.40;25.10;;;;;;5074166;28;20830;-69
2022/04/10 12:49:30;;;;;;;2.50;1.57;;;25.10;23.60;;;;;;5074387;28;20464;-69
2022/04/10 12:52:00;;;;;;;5.60;1.50;;;25.60;23.30;;;;;;5074071;28;20854;-69
2022/04/10 12:54:36;;;;;;;3.43;1.60;;;24.70;22.70;;;;;;5074556;28;20454;-68
2022/04/10 12:57:03;;;;;;;2.37;1.40;;;23.60;25.30;;;;;;5073996;28;20916;-69
2022/04/10 12:59:40;;;;;;;5.57;1.43;;;23.30;24.40;;;;;;5074246;28;20460;-68
2022/04/10 13:02:10;;;;;;;5.43;4.30;;;23.00;25.00;;;;;;5074193;28;20464;-69